createdAt,value
2023-04-22T00:02:45.796Z,25.47
2023-04-22T00:05:34.716Z,25.44
2023-04-22T00:08:23.330Z,25.40
2023-04-22T00:11:11.991Z,25.47
2023-04-22T00:14:00.627Z,25.46
2023-04-22T00:16:50.521Z,25.43
2023-04-22T00:19:39.466Z,25.44
2023-04-22T00:22:28.197Z,25.46
2023-04-22T00:25:17.415Z,25.44
2023-04-22T00:28:06.167Z,25.48
2023-04-22T00:30:54.848Z,25.47
2023-04-22T00:33:44.831Z,25.46
2023-04-22T00:36:33.542Z,25.47
2023-04-22T00:39:22.174Z,25.45
2023-04-22T00:42:11.458Z,25.44
2023-04-22T00:45:00.612Z,25.48
2023-04-22T00:47:50.142Z,25.42
2023-04-22T00:50:40.226Z,25.45
2023-04-22T00:53:28.787Z,25.42
2023-04-22T00:56:17.495Z,25.40
2023-04-22T00:59:06.431Z,25.38
2023-04-22T01:01:55.753Z,25.42
2023-04-22T01:04:44.590Z,25.40
2023-04-22T01:07:34.646Z,25.36
2023-04-22T01:10:23.317Z,25.43
2023-04-22T01:13:11.948Z,25.38
2023-04-22T01:16:02.671Z,25.42
2023-04-22T01:18:52.888Z,25.39
2023-04-22T01:21:41.912Z,25.43
2023-04-22T01:24:31.952Z,25.42
2023-04-22T01:27:21.026Z,25.43
2023-04-22T01:30:11.041Z,25.38
2023-04-22T01:32:59.916Z,25.43
2023-04-22T01:35:48.550Z,25.37
2023-04-22T01:38:37.216Z,25.38
2023-04-22T01:41:27.276Z,25.35
2023-04-22T01:44:16.362Z,25.31
2023-04-22T01:47:05.287Z,25.34
2023-04-22T01:49:53.913Z,25.34
2023-04-22T01:52:42.720Z,25.33
2023-04-22T01:55:35.992Z,25.32
2023-04-22T01:58:26.030Z,25.35
2023-04-22T02:01:15.093Z,25.34
2023-04-22T02:04:03.680Z,25.33
2023-04-22T02:06:52.270Z,25.37
2023-04-22T02:09:41.168Z,25.35
2023-04-22T02:12:30.319Z,25.30
2023-04-22T02:15:20.262Z,25.27
2023-04-22T02:18:10.176Z,25.30
2023-04-22T02:20:58.812Z,25.30
2023-04-22T02:23:47.509Z,25.30
2023-04-22T02:26:36.089Z,25.30
2023-04-22T02:29:25.148Z,25.30
2023-04-22T02:32:17.081Z,25.31
2023-04-22T02:35:06.440Z,25.27
2023-04-22T02:37:55.227Z,25.31
2023-04-22T02:40:43.963Z,25.30
2023-04-22T02:43:32.537Z,25.24
2023-04-22T02:46:21.228Z,25.25
2023-04-22T02:49:11.226Z,25.25
2023-04-22T02:51:59.983Z,25.20
2023-04-22T02:54:48.535Z,25.25
2023-04-22T02:57:37.154Z,25.26
2023-04-22T03:00:25.903Z,25.22
2023-04-22T03:03:15.116Z,25.18
2023-04-22T03:06:07.510Z,25.18
2023-04-22T03:08:56.433Z,25.20
2023-04-22T03:11:45.127Z,25.23
2023-04-22T03:14:33.676Z,25.21
2023-04-22T03:17:22.471Z,25.19
2023-04-22T03:20:12.282Z,25.17
2023-04-22T03:23:02.178Z,25.18
2023-04-22T03:25:50.994Z,25.14
2023-04-22T03:28:39.553Z,25.19
2023-04-22T03:31:28.361Z,25.15
2023-04-22T03:34:17.410Z,25.19
2023-04-22T03:37:06.025Z,25.14
2023-04-22T03:39:56.363Z,25.13
2023-04-22T03:42:45.052Z,25.16
2023-04-22T03:45:33.811Z,25.17
2023-04-22T03:48:22.464Z,25.16
2023-04-22T03:51:11.201Z,25.18
2023-04-22T03:53:59.752Z,25.17
2023-04-22T03:56:49.718Z,25.18
2023-04-22T03:59:38.604Z,25.14
2023-04-22T04:02:27.432Z,25.11
2023-04-22T04:05:16.249Z,25.11
2023-04-22T04:08:05.094Z,25.14
2023-04-22T04:10:53.795Z,25.14
2023-04-22T04:13:43.737Z,25.10
2023-04-22T04:16:32.443Z,25.10
2023-04-22T04:19:21.506Z,25.12
2023-04-22T04:22:10.644Z,25.14
2023-04-22T04:24:59.287Z,25.15
2023-04-22T04:27:47.864Z,25.12
2023-04-22T04:30:37.810Z,25.13
2023-04-22T04:33:27.593Z,25.09
2023-04-22T04:36:16.149Z,25.09
2023-04-22T04:39:04.983Z,25.13
2023-04-22T04:41:55.208Z,25.11
2023-04-22T04:44:43.919Z,25.14
2023-04-22T04:47:34.133Z,25.14
2023-04-22T04:50:23.017Z,25.15
2023-04-22T04:53:11.935Z,25.16
2023-04-22T04:56:00.459Z,25.09
2023-04-22T04:58:49.172Z,25.06
2023-04-22T05:01:37.789Z,25.06
2023-04-22T05:04:28.211Z,25.06
2023-04-22T05:07:16.935Z,25.10
2023-04-22T05:10:06.455Z,25.07
2023-04-22T05:12:55.065Z,25.11
2023-04-22T05:15:43.743Z,25.12
2023-04-22T05:18:32.353Z,25.06
2023-04-22T05:21:22.427Z,25.07
2023-04-22T05:24:11.119Z,25.07
2023-04-22T05:26:59.900Z,25.06
2023-04-22T05:29:48.487Z,25.08
2023-04-22T05:32:37.157Z,25.06
2023-04-22T05:35:25.955Z,25.06
2023-04-22T05:38:16.233Z,25.10
2023-04-22T05:41:04.876Z,25.12
2023-04-22T05:43:54.050Z,25.08
2023-04-22T05:46:42.658Z,25.11
2023-04-22T05:49:31.259Z,25.16
2023-04-22T05:52:19.838Z,25.14
2023-04-22T05:55:10.405Z,25.13
2023-04-22T05:57:59.128Z,25.14
2023-04-22T06:00:47.777Z,25.17
2023-04-22T06:03:36.603Z,25.18
2023-04-22T06:06:26.025Z,25.21
2023-04-22T06:09:14.632Z,25.17
2023-04-22T06:12:04.598Z,25.20
2023-04-22T06:14:53.268Z,25.22
2023-04-22T06:17:42.060Z,25.22
2023-04-22T06:20:32.634Z,25.25
2023-04-22T06:23:21.668Z,25.19
2023-04-22T06:26:10.486Z,25.28
2023-04-22T06:29:00.622Z,25.32
2023-04-22T06:31:49.349Z,25.30
2023-04-22T06:34:38.699Z,25.25
2023-04-22T06:37:27.538Z,25.23
2023-04-22T06:40:16.841Z,25.22
2023-04-22T06:43:05.720Z,25.24
2023-04-22T06:45:55.692Z,25.26
2023-04-22T06:48:44.449Z,25.26
2023-04-22T06:51:33.027Z,25.27
2023-04-22T06:54:21.655Z,25.27
2023-04-22T06:57:10.337Z,25.28
2023-04-22T06:59:58.958Z,25.33
2023-04-22T07:02:49.023Z,25.32
2023-04-22T07:05:39.568Z,25.32
2023-04-22T07:08:28.511Z,25.37
2023-04-22T07:11:18.603Z,25.38
2023-04-22T07:14:07.252Z,25.39
2023-04-22T07:16:55.930Z,25.37
2023-04-22T07:19:45.936Z,25.40
2023-04-22T07:22:34.606Z,25.38
2023-04-22T07:25:23.598Z,25.32
2023-04-22T07:28:12.358Z,25.34
2023-04-22T07:31:00.933Z,25.34
2023-04-22T07:33:49.527Z,25.47
2023-04-22T07:36:39.698Z,25.68
2023-04-22T07:39:28.538Z,25.82
2023-04-22T07:42:17.237Z,26.07
2023-04-22T07:45:06.842Z,26.15
2023-04-22T07:47:55.523Z,26.15
2023-04-22T07:50:44.158Z,26.39
2023-04-22T07:53:34.446Z,26.40
2023-04-22T07:56:29.915Z,26.48
2023-04-22T07:59:18.587Z,26.52
2023-04-22T08:02:07.319Z,26.50
2023-04-22T08:04:56.045Z,26.40
2023-04-22T08:07:44.825Z,26.21
2023-04-22T08:10:35.065Z,26.04
2023-04-22T08:13:24.549Z,26.00
2023-04-22T08:16:33.671Z,25.96
2023-04-22T08:19:22.437Z,25.96
2023-04-22T08:22:13.690Z,25.92
2023-04-22T08:25:02.414Z,25.91
2023-04-22T08:27:52.766Z,25.92
2023-04-22T08:30:41.910Z,25.94
2023-04-22T08:33:31.234Z,26.03
2023-04-22T08:36:22.873Z,25.92
2023-04-22T08:39:12.466Z,25.96
2023-04-22T08:42:02.224Z,25.96
2023-04-22T08:44:52.824Z,25.95
2023-04-22T08:47:42.540Z,25.95
2023-04-22T08:50:32.902Z,25.96
2023-04-22T08:53:24.597Z,26.05
2023-04-22T08:56:14.483Z,26.02
2023-04-22T08:59:06.483Z,25.95
2023-04-22T09:01:58.406Z,25.96
2023-04-22T09:04:49.304Z,25.96
2023-04-22T09:07:41.304Z,25.95
2023-04-22T09:10:33.984Z,25.98
2023-04-22T09:13:24.606Z,25.98
2023-04-22T09:16:14.905Z,26.02
2023-04-22T09:19:05.890Z,26.00
2023-04-22T09:21:54.777Z,26.01
2023-04-22T09:24:47.257Z,26.12
2023-04-22T09:27:37.452Z,26.27
2023-04-22T09:30:29.715Z,26.19
2023-04-22T09:33:18.587Z,26.29
2023-04-22T09:36:11.909Z,26.18
2023-04-22T09:39:03.857Z,26.27
2023-04-22T09:41:56.686Z,26.28
2023-04-22T09:44:47.235Z,26.37
2023-04-22T09:47:37.514Z,26.38
2023-04-22T09:50:27.900Z,26.39
2023-04-22T09:53:19.756Z,26.31
2023-04-22T09:56:09.229Z,26.23
2023-04-22T09:58:57.936Z,26.24
2023-04-22T10:01:46.787Z,26.20
2023-04-22T10:04:35.428Z,26.19
2023-04-22T10:07:24.379Z,26.21
2023-04-22T10:10:14.945Z,26.18
2023-04-22T10:13:05.130Z,26.29
2023-04-22T10:15:55.115Z,26.22
2023-04-22T10:18:44.058Z,26.25
2023-04-22T10:21:33.982Z,26.32
2023-04-22T10:24:23.050Z,26.29
2023-04-22T10:27:13.211Z,26.24
2023-04-22T10:30:02.674Z,26.27
2023-04-22T10:32:51.284Z,26.23
2023-04-22T10:35:39.994Z,26.30
2023-04-22T10:38:28.637Z,26.31
2023-04-22T10:41:18.264Z,26.21
2023-04-22T10:44:09.566Z,26.21
2023-04-22T10:47:00.363Z,26.23
2023-04-22T10:49:51.126Z,26.19
2023-04-22T10:52:40.012Z,26.17
2023-04-22T10:55:52.588Z,26.16
2023-04-22T10:58:41.260Z,26.16
2023-04-22T11:01:31.313Z,26.14
2023-04-22T11:04:24.067Z,26.16
2023-04-22T11:07:16.183Z,26.15
2023-04-22T11:10:15.887Z,26.13
2023-04-22T11:13:07.158Z,26.13
2023-04-22T11:15:56.915Z,26.17
2023-04-22T11:18:48.962Z,26.16
2023-04-22T11:21:37.809Z,26.16
2023-04-22T11:24:26.422Z,26.20
2023-04-22T11:27:15.019Z,26.23
2023-04-22T11:30:03.994Z,26.27
2023-04-22T11:32:54.806Z,26.26
2023-04-22T11:35:45.296Z,26.25
2023-04-22T11:38:34.193Z,26.28
2023-04-22T11:41:23.655Z,26.23
2023-04-22T11:44:15.614Z,26.28
2023-04-22T11:47:04.217Z,26.33
2023-04-22T11:49:59.437Z,26.34
2023-04-22T11:52:52.956Z,26.28
2023-04-22T11:55:42.942Z,26.24
2023-04-22T11:58:31.760Z,26.25
2023-04-22T12:01:20.313Z,26.24
2023-04-22T12:04:12.760Z,26.27
2023-04-22T12:07:01.423Z,26.26
2023-04-22T12:09:55.389Z,26.23
2023-04-22T12:12:44.038Z,26.30
2023-04-22T12:15:43.830Z,26.23
2023-04-22T12:18:33.254Z,26.23
2023-04-22T12:21:23.707Z,26.29
2023-04-22T12:24:12.387Z,26.34
2023-04-22T12:27:03.405Z,26.34
2023-04-22T12:29:56.778Z,26.37
2023-04-22T12:32:45.891Z,26.42
2023-04-22T12:35:34.852Z,26.49
2023-04-22T12:38:23.450Z,26.57
2023-04-22T12:41:12.384Z,26.81
2023-04-22T12:44:02.419Z,26.96
2023-04-22T12:46:51.290Z,27.25
2023-04-22T12:49:40.437Z,26.97
2023-04-22T12:52:29.332Z,27.00
2023-04-22T12:55:18.062Z,26.82
2023-04-22T12:58:06.783Z,26.91
2023-04-22T13:00:56.759Z,26.84
2023-04-22T13:03:45.817Z,26.80
2023-04-22T13:06:34.644Z,26.79
2023-04-22T13:09:27.097Z,26.76
2023-04-22T13:12:15.826Z,26.79
2023-04-22T13:15:06.270Z,26.78
2023-04-22T13:17:56.450Z,26.78
2023-04-22T13:20:45.100Z,26.78
2023-04-22T13:23:33.853Z,26.75
2023-04-22T13:26:22.455Z,26.82
2023-04-22T13:29:14.160Z,26.96
2023-04-22T13:32:04.520Z,27.01
2023-04-22T13:34:55.116Z,26.94
2023-04-22T13:37:43.845Z,26.97
2023-04-22T13:40:32.559Z,26.88
2023-04-22T13:43:21.277Z,26.89
2023-04-22T13:46:09.922Z,26.89
2023-04-22T13:48:58.664Z,26.86
2023-04-22T13:51:48.670Z,26.90
2023-04-22T13:54:37.259Z,26.94
2023-04-22T13:57:26.141Z,26.95
2023-04-22T14:00:15.431Z,26.96
2023-04-22T14:03:04.209Z,27.01
2023-04-22T14:05:53.482Z,26.93
2023-04-22T14:08:43.742Z,27.01
2023-04-22T14:11:33.685Z,27.09
2023-04-22T14:14:22.308Z,27.13
2023-04-22T14:17:11.011Z,27.12
2023-04-22T14:19:59.644Z,27.25
2023-04-22T14:22:48.521Z,27.29
2023-04-22T14:25:38.913Z,27.17
2023-04-22T14:28:27.924Z,27.14
2023-04-22T14:31:16.586Z,27.13
2023-04-22T14:34:05.286Z,27.18
2023-04-22T14:36:56.792Z,27.15
2023-04-22T14:39:45.414Z,27.05
2023-04-22T14:42:35.573Z,27.06
2023-04-22T14:45:25.518Z,26.97
2023-04-22T14:48:14.235Z,27.10
2023-04-22T14:51:02.894Z,27.05
2023-04-22T14:53:51.575Z,27.08
2023-04-22T14:56:40.209Z,26.94
2023-04-22T14:59:30.360Z,27.00
2023-04-22T15:02:19.036Z,27.05
2023-04-22T15:05:08.161Z,26.91
2023-04-22T15:07:57.737Z,26.85
2023-04-22T15:10:46.352Z,26.94
2023-04-22T15:13:35.040Z,26.77
2023-04-22T15:16:25.188Z,26.92
2023-04-22T15:19:13.871Z,26.93
2023-04-22T15:22:02.539Z,26.98
2023-04-22T15:24:51.171Z,26.92
2023-04-22T15:27:40.709Z,26.92
2023-04-22T15:30:32.081Z,26.92
2023-04-22T15:33:22.027Z,27.05
2023-04-22T15:36:10.815Z,26.80
2023-04-22T15:38:59.614Z,26.83
2023-04-22T15:41:48.311Z,26.92
2023-04-22T15:44:38.119Z,26.72
2023-04-22T15:47:28.822Z,26.80
2023-04-22T15:50:19.317Z,26.83
2023-04-22T15:53:07.989Z,26.77
2023-04-22T15:55:56.740Z,26.72
2023-04-22T15:58:45.587Z,26.59
2023-04-22T16:01:34.556Z,26.67
2023-04-22T16:04:23.431Z,26.56
2023-04-22T16:07:13.729Z,26.60
2023-04-22T16:10:02.485Z,26.61
2023-04-22T16:12:51.902Z,26.71
2023-04-22T16:15:40.629Z,26.64
2023-04-22T16:18:29.414Z,26.50
2023-04-22T16:21:18.364Z,26.59
2023-04-22T16:24:08.849Z,26.56
2023-04-22T16:26:59.069Z,26.47
2023-04-22T16:29:47.819Z,26.56
2023-04-22T16:32:37.111Z,26.50
2023-04-22T16:35:25.721Z,26.48
2023-04-22T16:38:19.113Z,26.50
2023-04-22T16:41:11.440Z,26.52
2023-04-22T16:44:00.971Z,26.49
2023-04-22T16:46:49.620Z,26.35
2023-04-22T16:49:38.590Z,26.48
2023-04-22T16:52:27.525Z,26.51
2023-04-22T16:55:16.378Z,26.54
2023-04-22T16:58:06.484Z,26.49
2023-04-22T17:00:55.278Z,26.57
2023-04-22T17:03:44.034Z,26.56
2023-04-22T17:06:33.577Z,26.57
2023-04-22T17:09:22.187Z,26.56
2023-04-22T17:12:10.856Z,26.59
2023-04-22T17:15:00.986Z,26.54
2023-04-22T17:17:49.883Z,26.54
2023-04-22T17:20:39.148Z,26.57
2023-04-22T17:23:27.981Z,26.45
2023-04-22T17:26:16.666Z,26.44
2023-04-22T17:29:05.376Z,26.40
2023-04-22T17:31:55.476Z,26.40
2023-04-22T17:34:44.250Z,26.41
2023-04-22T17:37:32.984Z,26.36
2023-04-22T17:40:21.951Z,26.30
2023-04-22T17:43:10.591Z,26.30
2023-04-22T17:45:59.336Z,26.25
2023-04-22T17:48:49.530Z,26.19
2023-04-22T17:51:38.751Z,26.16
2023-04-22T17:54:27.469Z,26.23
2023-04-22T17:57:16.388Z,26.23
2023-04-22T18:00:05.699Z,26.19
2023-04-22T18:02:54.973Z,26.16
2023-04-22T18:05:45.099Z,26.10
2023-04-22T18:08:33.734Z,26.16
2023-04-22T18:11:22.424Z,26.18
2023-04-22T18:14:11.481Z,26.13
2023-04-22T18:17:00.332Z,26.14
2023-04-22T18:19:51.017Z,26.18
2023-04-22T18:22:41.354Z,26.12
2023-04-22T18:25:33.171Z,26.11
2023-04-22T18:28:21.968Z,26.06
2023-04-22T18:31:10.668Z,26.08
2023-04-22T18:33:59.432Z,26.14
2023-04-22T18:36:48.137Z,26.12
2023-04-22T18:39:39.595Z,26.04
2023-04-22T18:42:28.978Z,26.04
2023-04-22T18:45:17.790Z,26.02
2023-04-22T18:48:06.554Z,26.00
2023-04-22T18:50:55.411Z,26.02
2023-04-22T18:53:44.128Z,26.00
2023-04-22T18:56:34.418Z,26.06
2023-04-22T18:59:23.078Z,26.13
2023-04-22T19:02:14.060Z,26.20
2023-04-22T19:05:02.706Z,26.19
2023-04-22T19:07:51.267Z,26.11
2023-04-22T19:10:40.269Z,26.15
2023-04-22T19:13:30.523Z,26.07
2023-04-22T19:16:19.270Z,26.15
2023-04-22T19:19:08.102Z,26.15
2023-04-22T19:21:56.802Z,26.33
2023-04-22T19:24:45.881Z,26.66
2023-04-22T19:27:35.012Z,26.96
2023-04-22T19:30:26.487Z,27.03
2023-04-22T19:33:15.643Z,27.13
2023-04-22T19:36:06.212Z,27.18
2023-04-22T19:38:54.825Z,27.24
2023-04-22T19:41:43.503Z,27.26
2023-04-22T19:44:32.217Z,27.23
2023-04-22T19:47:22.661Z,27.27
2023-04-22T19:50:11.942Z,27.37
2023-04-22T19:53:04.345Z,27.59
2023-04-22T19:55:54.254Z,27.39
2023-04-22T19:58:44.426Z,27.51
2023-04-22T20:01:33.969Z,27.52
2023-04-22T20:04:25.070Z,27.56
2023-04-22T20:07:16.415Z,27.55
2023-04-22T20:10:08.350Z,27.60
2023-04-22T20:12:57.281Z,27.58
2023-04-22T20:15:46.309Z,27.55
2023-04-22T20:18:35.367Z,27.50
2023-04-22T20:21:25.762Z,27.31
2023-04-22T20:24:19.335Z,27.25
2023-04-22T20:27:08.644Z,26.94
2023-04-22T20:29:57.827Z,26.79
2023-04-22T20:32:46.715Z,26.72
2023-04-22T20:35:36.583Z,26.71
2023-04-22T20:38:30.968Z,26.67
2023-04-22T20:41:20.148Z,26.64
2023-04-22T20:44:08.948Z,26.61
2023-04-22T20:46:58.840Z,26.59
2023-04-22T20:49:47.485Z,26.57
2023-04-22T20:52:36.490Z,26.66
2023-04-22T20:55:26.531Z,26.60
2023-04-22T20:58:15.758Z,26.56
2023-04-22T21:01:04.405Z,26.90
2023-04-22T21:03:57.627Z,27.17
2023-04-22T21:06:46.703Z,27.24
2023-04-22T21:09:35.629Z,27.19
2023-04-22T21:12:27.258Z,27.44
2023-04-22T21:15:16.784Z,27.51
2023-04-22T21:18:07.344Z,27.43
2023-04-22T21:20:58.112Z,27.36
2023-04-22T21:23:47.408Z,27.38
2023-04-22T21:26:40.109Z,27.44
2023-04-22T21:29:31.213Z,27.47
2023-04-22T21:32:20.770Z,27.54
2023-04-22T21:35:10.268Z,27.46
2023-04-22T21:37:58.992Z,27.59
2023-04-22T21:40:50.301Z,27.54
2023-04-22T21:43:38.902Z,27.36
2023-04-22T21:46:28.888Z,27.37
2023-04-22T21:49:18.360Z,27.14
2023-04-22T21:52:07.006Z,27.03
2023-04-22T21:54:55.573Z,27.02
2023-04-22T21:57:44.252Z,26.94
2023-04-22T22:00:33.301Z,26.91
2023-04-22T22:03:23.340Z,26.95
2023-04-22T22:06:12.056Z,26.89
2023-04-22T22:09:00.997Z,26.83
2023-04-22T22:11:49.538Z,26.85
2023-04-22T22:14:39.119Z,26.78
2023-04-22T22:17:28.039Z,26.82
2023-04-22T22:20:20.331Z,26.86
2023-04-22T22:23:09.178Z,26.82
2023-04-22T22:25:57.801Z,26.83
2023-04-22T22:28:46.467Z,26.79
2023-04-22T22:31:35.151Z,26.74
2023-04-22T22:34:26.712Z,26.83
2023-04-22T22:37:16.765Z,26.81
2023-04-22T22:40:05.748Z,26.79
2023-04-22T22:42:54.492Z,26.79
2023-04-22T22:45:43.477Z,26.80
2023-04-22T22:48:32.711Z,26.69
2023-04-22T22:51:21.892Z,26.67
2023-04-22T22:54:12.111Z,26.65
2023-04-22T22:57:01.673Z,26.62
2023-04-22T22:59:50.642Z,26.64
2023-04-22T23:02:39.460Z,26.62
2023-04-22T23:05:29.072Z,26.60
2023-04-22T23:08:17.760Z,26.56
2023-04-22T23:11:07.770Z,26.57
2023-04-22T23:13:56.584Z,26.49
2023-04-22T23:16:45.320Z,26.45
2023-04-22T23:19:34.494Z,26.48
2023-04-22T23:22:23.775Z,26.43
2023-04-22T23:25:14.020Z,26.43
2023-04-22T23:28:05.089Z,26.41
2023-04-22T23:30:56.708Z,26.34
2023-04-22T23:33:46.780Z,26.34
2023-04-22T23:36:37.503Z,26.22
2023-04-22T23:39:26.266Z,26.21
2023-04-22T23:42:14.888Z,26.18
2023-04-22T23:45:05.256Z,26.18
2023-04-22T23:47:53.951Z,26.23
2023-04-22T23:50:42.745Z,26.17
2023-04-22T23:53:31.361Z,26.13
2023-04-22T23:56:22.900Z,26.13
2023-04-22T23:59:12.115Z,26.16
